createdAt,value
2023-03-05T00:01:19.892Z,61.02
2023-03-05T00:06:28.673Z,61.55
2023-03-05T00:11:34.878Z,61.69
2023-03-05T00:16:40.887Z,62.75
2023-03-05T00:21:46.601Z,62.95
2023-03-05T00:26:52.179Z,62.41
2023-03-05T00:31:57.868Z,63.35
2023-03-05T00:37:03.228Z,63.29
2023-03-05T00:42:09.313Z,63.12
2023-03-05T00:47:14.846Z,62.88
2023-03-05T00:52:20.365Z,63.36
2023-03-05T00:57:26.005Z,63.43
2023-03-05T01:02:33.767Z,64.09
2023-03-05T01:07:43.083Z,63.38
2023-03-05T01:12:48.922Z,63.29
2023-03-05T01:17:54.634Z,63.39
2023-03-05T01:23:02.389Z,63.68
2023-03-05T01:28:08.319Z,64.15
2023-03-05T01:33:14.047Z,63.60
2023-03-05T01:38:20.009Z,64.05
2023-03-05T01:43:29.106Z,64.47
2023-03-05T01:48:34.988Z,64.77
2023-03-05T01:53:41.031Z,64.71
2023-03-05T01:58:46.885Z,64.52
2023-03-05T02:03:52.708Z,64.55
2023-03-05T02:08:58.176Z,64.46
2023-03-05T02:14:07.282Z,64.53
2023-03-05T02:19:14.392Z,65.27
2023-03-05T02:24:37.220Z,65.05
2023-03-05T02:29:45.769Z,65.49
2023-03-05T02:34:51.132Z,66.06
2023-03-05T02:39:56.959Z,65.38
2023-03-05T02:45:04.446Z,65.08
2023-03-05T02:50:13.075Z,65.76
2023-03-05T02:55:19.041Z,65.19
2023-03-05T03:00:24.666Z,65.05
2023-03-05T03:05:30.778Z,65.46
2023-03-05T03:10:36.300Z,64.73
2023-03-05T03:15:41.949Z,64.83
2023-03-05T03:20:47.870Z,65.42
2023-03-05T03:25:53.874Z,64.91
2023-03-05T03:30:59.422Z,65.19
2023-03-05T03:36:06.704Z,65.92
2023-03-05T03:41:11.045Z,66.39
2023-03-05T03:46:15.700Z,66.80
2023-03-05T03:51:20.677Z,66.63
2023-03-05T03:56:24.949Z,66.45
2023-03-05T04:01:29.363Z,66.05
2023-03-05T04:06:34.444Z,64.70
2023-03-05T04:11:39.139Z,64.16
2023-03-05T04:16:43.524Z,62.92
2023-03-05T04:21:47.944Z,61.93
2023-03-05T04:26:53.184Z,60.30
2023-03-05T04:31:57.504Z,58.48
2023-03-05T04:37:02.079Z,57.16
2023-03-05T04:42:06.680Z,56.60
2023-03-05T04:47:11.032Z,55.81
2023-03-05T04:52:17.392Z,56.07
2023-03-05T04:57:23.158Z,57.19
2023-03-05T05:02:28.453Z,57.27
2023-03-05T05:07:33.411Z,57.75
2023-03-05T05:12:39.819Z,58.38
2023-03-05T05:17:44.201Z,57.84
2023-03-05T05:22:48.502Z,58.53
2023-03-05T05:27:52.885Z,58.58
2023-03-05T05:32:58.200Z,57.75
2023-03-05T05:38:03.517Z,57.15
2023-03-05T05:43:07.987Z,57.77
2023-03-05T05:48:12.192Z,57.76
2023-03-05T05:53:16.426Z,58.45
2023-03-05T05:58:20.740Z,59.44
2023-03-05T06:03:25.025Z,57.97
2023-03-05T06:08:29.279Z,58.20
2023-03-05T06:13:34.318Z,57.88
2023-03-05T06:18:38.465Z,57.65
2023-03-05T06:23:43.865Z,58.64
2023-03-05T06:28:48.197Z,58.70
2023-03-05T06:33:55.879Z,58.72
2023-03-05T06:39:00.132Z,59.52
2023-03-05T06:44:04.776Z,59.09
2023-03-05T06:49:10.166Z,59.87
2023-03-05T06:54:16.601Z,59.66
2023-03-05T06:59:22.230Z,60.53
2023-03-05T07:04:26.504Z,60.00
2023-03-05T07:09:31.397Z,60.76
2023-03-05T07:14:35.701Z,61.22
2023-03-05T07:19:40.825Z,60.98
2023-03-05T07:24:47.001Z,60.25
2023-03-05T07:29:52.395Z,60.17
2023-03-05T07:34:56.704Z,60.15
2023-03-05T07:40:00.991Z,59.24
2023-03-05T07:45:05.724Z,58.70
2023-03-05T07:50:10.738Z,59.00
2023-03-05T07:55:15.153Z,58.76
2023-03-05T08:00:20.554Z,59.51
2023-03-05T08:05:24.808Z,59.29
2023-03-05T08:10:29.085Z,59.80
2023-03-05T08:15:33.900Z,59.38
2023-03-05T08:20:38.168Z,59.62
2023-03-05T08:25:42.321Z,59.85
2023-03-05T08:30:48.489Z,59.31
2023-03-05T08:35:52.752Z,58.72
2023-03-05T08:40:56.927Z,58.04
2023-03-05T08:46:01.930Z,58.15
2023-03-05T08:51:13.444Z,56.85
2023-03-05T08:56:17.694Z,56.89
2023-03-05T09:01:23.217Z,56.77
2023-03-05T09:06:29.164Z,56.41
2023-03-05T09:11:36.666Z,54.40
2023-03-05T09:16:43.759Z,52.79
2023-03-05T09:21:48.077Z,51.30
2023-03-05T09:26:52.259Z,52.61
2023-03-05T09:31:56.637Z,52.07
2023-03-05T09:37:02.656Z,51.97
2023-03-05T09:42:10.404Z,51.87
2023-03-05T09:47:55.111Z,52.28
2023-03-05T09:53:19.937Z,52.81
2023-03-05T09:58:40.150Z,52.66
2023-03-05T10:04:09.320Z,51.72
2023-03-05T10:09:41.382Z,52.80
2023-03-05T10:14:45.738Z,53.09
2023-03-05T10:20:17.476Z,53.34
2023-03-05T10:25:36.247Z,51.62
2023-03-05T10:31:06.713Z,52.19
2023-03-05T10:36:42.230Z,55.21
2023-03-05T10:42:04.459Z,56.19
2023-03-05T10:47:32.194Z,55.57
2023-03-05T10:52:41.563Z,55.48
2023-03-05T10:57:47.009Z,54.87
2023-03-05T11:03:07.141Z,53.64
2023-03-05T11:08:26.473Z,52.55
2023-03-05T11:13:34.443Z,50.98
2023-03-05T11:18:39.525Z,48.89
2023-03-05T11:23:44.051Z,51.07
2023-03-05T11:28:54.331Z,51.30
2023-03-05T11:34:06.155Z,51.66
2023-03-05T11:39:18.922Z,51.23
2023-03-05T11:44:48.877Z,51.65
2023-03-05T11:50:04.134Z,52.06
2023-03-05T11:55:18.043Z,52.06
2023-03-05T12:00:30.593Z,51.80
2023-03-05T12:05:40.848Z,51.83
2023-03-05T12:10:46.081Z,51.72
2023-03-05T12:16:14.441Z,51.76
2023-03-05T12:21:33.606Z,51.25
2023-03-05T12:27:00.161Z,50.41
2023-03-05T12:32:30.346Z,50.19
2023-03-05T12:37:36.587Z,50.03
2023-03-05T12:42:58.947Z,50.17
2023-03-05T12:48:03.226Z,48.54
2023-03-05T12:53:16.535Z,46.95
2023-03-05T12:58:31.112Z,45.13
2023-03-05T13:03:37.922Z,46.15
2023-03-05T13:08:44.227Z,46.97
2023-03-05T13:13:51.159Z,47.10
2023-03-05T13:19:00.175Z,46.89
2023-03-05T13:24:18.502Z,46.65
2023-03-05T13:29:29.023Z,46.94
2023-03-05T13:34:47.063Z,44.94
2023-03-05T13:40:18.952Z,43.24
2023-03-05T13:45:27.075Z,43.63
2023-03-05T13:50:38.834Z,44.71
2023-03-05T13:55:44.650Z,45.43
2023-03-05T14:00:50.345Z,45.65
2023-03-05T14:05:55.975Z,46.70
2023-03-05T14:11:15.768Z,47.25
2023-03-05T14:16:33.953Z,46.71
2023-03-05T14:21:49.135Z,47.30
2023-03-05T14:26:58.992Z,47.71
2023-03-05T14:32:09.219Z,48.49
2023-03-05T14:37:42.983Z,48.56
2023-03-05T14:43:20.113Z,48.82
2023-03-05T14:48:25.597Z,48.79
2023-03-05T14:53:42.698Z,49.99
2023-03-05T14:58:48.287Z,50.02
2023-03-05T15:03:53.775Z,51.44
2023-03-05T15:08:59.933Z,51.37
2023-03-05T15:14:04.189Z,51.62
2023-03-05T15:19:20.086Z,53.28
2023-03-05T15:24:25.711Z,53.69
2023-03-05T15:29:31.408Z,52.71
2023-03-05T15:34:37.482Z,52.95
2023-03-05T15:39:43.059Z,52.86
2023-03-05T15:44:48.204Z,53.13
2023-03-05T15:49:53.675Z,54.66
2023-03-05T15:55:01.163Z,54.17
2023-03-05T16:00:09.744Z,55.60
2023-03-05T16:05:19.105Z,54.99
2023-03-05T16:10:27.559Z,55.68
2023-03-05T16:15:34.510Z,55.46
2023-03-05T16:20:39.891Z,56.45
2023-03-05T16:25:45.688Z,56.48
2023-03-05T16:30:57.047Z,56.85
2023-03-05T16:36:12.359Z,56.71
2023-03-05T16:41:19.277Z,56.54
2023-03-05T16:46:26.169Z,56.72
2023-03-05T16:51:31.571Z,56.99
2023-03-05T16:56:37.142Z,57.16
2023-03-05T17:01:42.776Z,57.28
2023-03-05T17:06:49.874Z,57.09
2023-03-05T17:11:55.730Z,56.31
2023-03-05T17:17:02.185Z,55.90
2023-03-05T17:22:06.937Z,55.99
2023-03-05T17:27:13.622Z,56.90
2023-03-05T17:32:18.858Z,56.53
2023-03-05T17:37:24.399Z,57.24
2023-03-05T17:42:29.877Z,56.95
2023-03-05T17:47:35.771Z,57.50
2023-03-05T17:52:41.955Z,55.99
2023-03-05T17:57:48.519Z,56.28
2023-03-05T18:02:54.509Z,56.67
2023-03-05T18:08:01.417Z,56.89
2023-03-05T18:13:07.132Z,56.24
2023-03-05T18:18:12.809Z,56.29
2023-03-05T18:23:18.426Z,56.69
2023-03-05T18:28:26.356Z,56.57
2023-03-05T18:33:33.381Z,56.53
2023-03-05T18:38:39.207Z,57.12
2023-03-05T18:43:44.635Z,56.98
2023-03-05T18:48:50.095Z,57.06
2023-03-05T18:53:57.956Z,57.89
2023-03-05T18:59:03.510Z,58.21
2023-03-05T19:04:09.244Z,58.47
2023-03-05T19:09:58.959Z,58.29
2023-03-05T19:15:09.417Z,58.25
2023-03-05T19:20:16.585Z,58.43
2023-03-05T19:25:22.063Z,57.54
2023-03-05T19:30:27.487Z,58.17
2023-03-05T19:35:33.529Z,57.95
2023-03-05T19:40:42.165Z,58.20
2023-03-05T19:45:47.929Z,58.74
2023-03-05T19:50:53.402Z,58.28
2023-03-05T19:56:04.697Z,58.61
2023-03-05T20:01:12.403Z,59.45
2023-03-05T20:06:18.733Z,59.18
2023-03-05T20:11:25.863Z,59.45
2023-03-05T20:16:36.615Z,59.73
2023-03-05T20:21:42.423Z,60.02
2023-03-05T20:26:48.465Z,59.61
2023-03-05T20:31:57.032Z,59.71
2023-03-05T20:37:02.556Z,59.54
2023-03-05T20:42:08.053Z,60.18
2023-03-05T20:47:47.029Z,60.24
2023-03-05T20:52:52.501Z,60.21
2023-03-05T20:57:58.476Z,60.17
2023-03-05T21:03:04.818Z,60.29
2023-03-05T21:08:10.174Z,60.81
2023-03-05T21:13:15.438Z,61.91
2023-03-05T21:18:20.854Z,61.48
2023-03-05T21:23:26.414Z,62.24
2023-03-05T21:28:32.634Z,62.47
2023-03-05T21:33:38.329Z,62.03
2023-03-05T21:38:43.747Z,60.91
2023-03-05T21:43:49.387Z,60.93
2023-03-05T21:48:54.916Z,61.30
2023-03-05T21:54:00.342Z,61.34
2023-03-05T21:59:05.819Z,60.11
2023-03-05T22:04:11.488Z,59.59
2023-03-05T22:09:16.978Z,59.82
2023-03-05T22:14:22.861Z,59.42
2023-03-05T22:19:30.391Z,58.95
2023-03-05T22:24:35.801Z,59.29
2023-03-05T22:29:41.214Z,59.07
2023-03-05T22:34:46.556Z,58.86
2023-03-05T22:39:57.866Z,59.97
2023-03-05T22:45:03.298Z,59.54
2023-03-05T22:50:10.115Z,60.44
2023-03-05T22:55:16.947Z,60.71
2023-03-05T23:00:24.304Z,60.76
2023-03-05T23:05:29.686Z,61.30
2023-03-05T23:10:35.606Z,61.06
2023-03-05T23:15:41.202Z,61.24
2023-03-05T23:20:46.596Z,62.47
2023-03-05T23:25:52.905Z,62.57
2023-03-05T23:30:59.191Z,61.32
2023-03-05T23:36:04.924Z,62.14
2023-03-05T23:41:10.575Z,61.09
2023-03-05T23:46:16.385Z,62.14
2023-03-05T23:51:22.199Z,62.00
2023-03-05T23:56:27.724Z,62.77
